Time;durP1;ratioP1;P1;durP2;ratioP2;P2;SDS_P1;SDS_P2;PMS_P1;PMS_P2;Temp;Humidity;BMP_temperature;BMP_pressure;BME280_temperature;BME280_humidity;BME280_pressure;Samples;Min_cycle;Max_cycle;Signal;HPM_P1;HPM_P2
2022/08/23 00:00:05;;;;;;;4.23;3.30;;;21.60;91.40;;;;;;5036667;28;20860;-77
2022/08/23 00:02:41;;;;;;;4.20;3.80;;;21.60;91.40;;;;;;5037581;28;20895;-78
2022/08/23 00:05:11;;;;;;;5.67;4.40;;;21.60;91.40;;;;;;5037026;28;20460;-78
2022/08/23 00:07:42;;;;;;;4.90;3.83;;;21.60;91.40;;;;;;5035540;28;20455;-78
2022/08/23 00:10:12;;;;;;;3.63;3.33;;;21.60;91.40;;;;;;5036875;28;20895;-77
2022/08/23 00:12:42;;;;;;;4.37;3.97;;;21.50;91.40;;;;;;5036731;28;20470;-77
2022/08/23 00:15:15;;;;;;;5.33;4.03;;;21.60;91.40;;;;;;5037259;28;20439;-76
2022/08/23 00:17:43;;;;;;;4.17;3.40;;;21.60;91.40;;;;;;5036408;28;20475;-77
2022/08/23 00:20:14;;;;;;;4.50;3.50;;;21.50;91.40;;;;;;5038028;28;20470;-79
2022/08/23 00:22:42;;;;;;;6.47;3.83;;;21.50;91.50;;;;;;5038364;28;20445;-78
2022/08/23 00:25:12;;;;;;;4.20;3.70;;;21.50;91.50;;;;;;5036880;28;20467;-77
2022/08/23 00:27:40;;;;;;;5.57;3.67;;;21.50;91.50;;;;;;5037391;28;20462;-78
2022/08/23 00:30:13;;;;;;;4.40;4.00;;;21.50;91.50;;;;;;5035514;28;20447;-77
2022/08/23 00:32:43;;;;;;;4.30;3.90;;;21.50;91.50;;;;;;5036720;28;20430;-77
2022/08/23 00:35:13;;;;;;;5.80;4.00;;;21.50;91.60;;;;;;5036522;28;20538;-76
2022/08/23 00:37:56;;;;;;;4.30;3.77;;;21.50;91.60;;;;;;5034936;28;20563;-77
2022/08/23 00:40:45;;;;;;;4.30;3.50;;;21.40;91.60;;;;;;5035618;28;20947;-77
2022/08/23 00:48:58;;;;;;;3.90;3.57;;;21.40;91.70;;;;;;5036035;28;20510;-77
2022/08/23 00:51:34;;;;;;;3.67;3.37;;;21.40;91.70;;;;;;5034226;28;20478;-77
2022/08/23 00:54:20;;;;;;;7.60;4.00;;;21.40;91.80;;;;;;5035992;28;20959;-76
2022/08/23 00:56:50;;;;;;;4.43;3.53;;;21.40;91.80;;;;;;5035668;28;20546;-77
2022/08/23 00:59:19;;;;;;;5.10;3.70;;;21.30;91.70;;;;;;5034405;28;20463;-76
2022/08/23 01:01:49;;;;;;;6.07;3.70;;;21.30;91.80;;;;;;5035775;28;20959;-77
2022/08/23 01:04:18;;;;;;;4.13;3.73;;;21.30;91.80;;;;;;5033840;28;21022;-76
2022/08/23 01:06:51;;;;;;;4.37;3.97;;;21.40;91.90;;;;;;5034105;28;20463;-76
2022/08/23 01:09:21;;;;;;;6.63;4.30;;;21.30;91.80;;;;;;5035295;28;20458;-77
2022/08/23 01:11:56;;;;;;;3.90;3.50;;;21.30;91.90;;;;;;5034260;28;20471;-77
2022/08/23 01:14:29;;;;;;;7.73;4.43;;;21.30;91.90;;;;;;5035635;28;20485;-76
2022/08/23 01:17:04;;;;;;;4.90;4.10;;;21.30;92.20;;;;;;5034077;28;20502;-77
2022/08/23 01:19:36;;;;;;;7.50;4.03;;;21.30;92.00;;;;;;5033691;28;20530;-77
2022/08/23 01:22:09;;;;;;;4.63;3.60;;;21.30;92.00;;;;;;5035495;28;20431;-77
2022/08/23 01:24:40;;;;;;;5.67;3.80;;;21.30;92.00;;;;;;5034019;28;20496;-77
2022/08/23 01:27:29;;;;;;;4.33;3.93;;;21.20;92.00;;;;;;5034316;28;20517;-76
2022/08/23 01:30:00;;;;;;;4.10;3.80;;;21.20;92.10;;;;;;5034599;28;20438;-76
2022/08/23 01:32:31;;;;;;;4.97;3.60;;;21.20;92.10;;;;;;5033650;28;20443;-77
2022/08/23 01:35:00;;;;;;;4.03;3.60;;;21.20;92.10;;;;;;5033198;28;20862;-78
2022/08/23 01:37:28;;;;;;;5.63;3.73;;;21.20;92.10;;;;;;5033778;28;20473;-77
2022/08/23 01:39:58;;;;;;;4.33;3.33;;;21.20;92.20;;;;;;5037178;28;20668;-76
2022/08/23 01:42:27;;;;;;;5.40;4.53;;;21.20;92.20;;;;;;5035359;28;20455;-77
2022/08/23 01:44:56;;;;;;;3.93;3.63;;;21.20;92.20;;;;;;5034364;28;20443;-77
2022/08/23 01:47:24;;;;;;;8.83;4.33;;;21.20;92.20;;;;;;5034180;28;20871;-76
2022/08/23 01:49:53;;;;;;;4.60;3.90;;;21.20;92.30;;;;;;5034209;28;20450;-76
2022/08/23 01:52:21;;;;;;;5.13;3.70;;;21.20;92.30;;;;;;5033130;28;20439;-76
2022/08/23 01:54:49;;;;;;;4.70;4.03;;;21.10;92.30;;;;;;5033506;28;21003;-77
2022/08/23 01:57:18;;;;;;;4.67;3.77;;;21.10;92.30;;;;;;5033918;28;20549;-78
2022/08/23 01:59:47;;;;;;;5.47;4.03;;;21.10;92.40;;;;;;5033859;28;20471;-77
2022/08/23 02:02:15;;;;;;;5.17;3.87;;;21.10;92.70;;;;;;5033429;28;20442;-77
2022/08/23 02:04:44;;;;;;;6.50;4.07;;;21.10;92.40;;;;;;5037904;28;20451;-76
2022/08/23 02:07:12;;;;;;;4.60;3.70;;;21.10;92.50;;;;;;5034698;28;20517;-77
2022/08/23 02:09:41;;;;;;;4.23;3.83;;;21.00;92.40;;;;;;5033811;28;20526;-77
2022/08/23 02:12:10;;;;;;;4.40;4.00;;;21.00;92.50;;;;;;5033893;28;20453;-76
2022/08/23 02:14:41;;;;;;;4.30;3.70;;;21.00;92.50;;;;;;5033521;28;20451;-77
2022/08/23 02:17:17;;;;;;;4.50;3.60;;;21.00;92.50;;;;;;5034055;28;20987;-78
2022/08/23 02:19:45;;;;;;;5.90;3.90;;;21.00;92.50;;;;;;5034720;28;20847;-78
2022/08/23 02:22:14;;;;;;;5.07;3.83;;;21.00;92.60;;;;;;5034482;28;20477;-77
2022/08/23 02:24:44;;;;;;;5.47;3.70;;;21.00;92.60;;;;;;5034488;28;20505;-77
2022/08/23 02:27:14;;;;;;;4.30;3.80;;;21.00;92.60;;;;;;5033978;28;20868;-78
2022/08/23 02:29:46;;;;;;;5.50;3.40;;;21.00;92.60;;;;;;5034900;28;20872;-77
2022/08/23 02:32:18;;;;;;;5.10;3.93;;;21.00;92.70;;;;;;5037133;28;20431;-77
2022/08/23 02:34:47;;;;;;;4.90;3.70;;;21.00;92.70;;;;;;5036884;28;20489;-77
2022/08/23 02:37:33;;;;;;;8.50;4.90;;;20.90;92.70;;;;;;5038860;28;20828;-76
2022/08/23 02:40:01;;;;;;;5.27;3.90;;;20.90;92.70;;;;;;5036928;28;20478;-76
2022/08/23 02:42:30;;;;;;;4.30;3.37;;;20.90;92.70;;;;;;5037375;28;20533;-76
2022/08/23 02:45:01;;;;;;;5.00;3.90;;;20.90;92.80;;;;;;5036958;28;20465;-78
2022/08/23 02:47:31;;;;;;;4.17;3.77;;;20.90;92.80;;;;;;5038730;28;20466;-78
2022/08/23 02:50:15;;;;;;;4.60;4.00;;;20.90;92.80;;;;;;5038208;28;20443;-78
2022/08/23 02:52:44;;;;;;;6.10;4.10;;;20.90;92.80;;;;;;5038718;28;20952;-78
2022/08/23 02:55:13;;;;;;;4.53;3.97;;;20.90;92.90;;;;;;5039521;28;20453;-77
2022/08/23 02:57:42;;;;;;;3.90;3.50;;;20.80;92.90;;;;;;5039140;28;20478;-78
2022/08/23 03:00:16;;;;;;;5.43;3.77;;;20.80;92.90;;;;;;5036289;28;20490;-76
2022/08/23 03:02:44;;;;;;;4.40;3.73;;;20.80;93.00;;;;;;5036489;28;20439;-77
2022/08/23 03:05:14;;;;;;;4.67;4.17;;;20.80;93.20;;;;;;5036499;28;20456;-78
2022/08/23 03:07:43;;;;;;;6.13;4.00;;;20.80;93.00;;;;;;5036353;28;20463;-77
2022/08/23 03:10:12;;;;;;;6.40;4.00;;;20.80;93.10;;;;;;5036334;28;20474;-78
2022/08/23 03:12:46;;;;;;;4.10;3.70;;;20.70;93.10;;;;;;5036757;28;20518;-77
2022/08/23 03:15:18;;;;;;;8.40;4.30;;;20.70;93.10;;;;;;5036659;28;20450;-77
2022/08/23 03:17:47;;;;;;;7.13;4.60;;;20.70;93.10;;;;;;5036678;28;20992;-77
2022/08/23 03:20:15;;;;;;;5.37;4.27;;;20.70;93.20;;;;;;5036237;28;20566;-76
2022/08/23 03:22:43;;;;;;;4.60;3.80;;;20.70;93.20;;;;;;5035634;28;20860;-76
2022/08/23 03:25:24;;;;;;;6.27;4.70;;;20.70;93.20;;;;;;5035738;28;20462;-77
2022/08/23 03:28:09;;;;;;;6.00;4.27;;;20.70;93.20;;;;;;5037225;28;20470;-77
2022/08/23 03:30:43;;;;;;;4.67;4.27;;;20.60;93.20;;;;;;5036415;28;20473;-78
2022/08/23 03:33:12;;;;;;;5.37;4.83;;;20.60;93.50;;;;;;5037833;28;20439;-78
2022/08/23 03:35:41;;;;;;;4.73;4.23;;;20.60;93.30;;;;;;5039892;28;20473;-78
2022/08/23 03:38:12;;;;;;;6.10;4.20;;;20.60;93.30;;;;;;5037278;28;20521;-77
2022/08/23 03:40:41;;;;;;;3.97;3.57;;;20.60;93.30;;;;;;5039019;28;20827;-78
2022/08/23 03:43:10;;;;;;;4.30;3.30;;;20.60;93.40;;;;;;5037541;28;20843;-78
2022/08/23 03:45:38;;;;;;;5.53;3.87;;;20.50;93.40;;;;;;5036343;28;20479;-77
2022/08/23 03:48:09;;;;;;;5.63;3.93;;;20.50;93.40;;;;;;5036308;28;20498;-77
2022/08/23 03:50:37;;;;;;;5.67;4.43;;;20.50;93.50;;;;;;5035748;28;20964;-79
2022/08/23 03:53:06;;;;;;;5.77;4.03;;;20.50;93.50;;;;;;5037088;28;20439;-78
2022/08/23 03:55:36;;;;;;;4.73;4.07;;;20.50;93.50;;;;;;5037869;28;20462;-78
2022/08/23 03:58:12;;;;;;;6.70;4.10;;;20.40;93.50;;;;;;5038756;28;20470;-78
2022/08/23 04:00:40;;;;;;;6.03;4.30;;;20.40;93.60;;;;;;5037233;28;20915;-79
2022/08/23 04:03:10;;;;;;;5.97;3.93;;;20.40;93.60;;;;;;5038104;28;20439;-78
2022/08/23 04:05:54;;;;;;;8.60;3.80;;;20.40;93.60;;;;;;5038549;28;20494;-79
2022/08/23 04:08:24;;;;;;;4.13;3.53;;;20.40;93.70;;;;;;5038300;28;20817;-78
2022/08/23 04:11:02;;;;;;;4.13;3.73;;;20.40;93.70;;;;;;5037070;28;20526;-77
2022/08/23 04:13:32;;;;;;;6.90;4.80;;;20.40;93.70;;;;;;5036283;28;20446;-77
2022/08/23 04:16:03;;;;;;;6.23;4.80;;;20.30;93.70;;;;;;5036359;28;20509;-77
2022/08/23 04:18:34;;;;;;;5.13;3.97;;;20.30;93.80;;;;;;5035895;28;20499;-77
2022/08/23 04:21:08;;;;;;;5.37;4.13;;;20.30;93.80;;;;;;5036590;28;20523;-76
2022/08/23 04:23:38;;;;;;;4.50;4.10;;;20.30;93.90;;;;;;5035289;28;20439;-79
2022/08/23 04:26:08;;;;;;;4.87;4.33;;;20.30;93.90;;;;;;5035625;28;20452;-76
2022/08/23 04:28:38;;;;;;;7.90;5.47;;;20.30;93.90;;;;;;5035606;28;20470;-78
2022/08/23 04:31:06;;;;;;;9.97;4.80;;;20.20;94.00;;;;;;5035463;28;20446;-77
2022/08/23 04:33:38;;;;;;;4.50;4.00;;;20.20;94.00;;;;;;5036950;28;20439;-77
2022/08/23 04:36:09;;;;;;;5.20;4.20;;;20.20;94.30;;;;;;5038348;28;20455;-78
2022/08/23 04:38:37;;;;;;;5.20;4.70;;;20.10;94.00;;;;;;5036858;28;20466;-78
2022/08/23 04:43:55;;;;;;;5.17;4.67;;;20.10;94.10;;;;;;5035334;28;20936;-77
2022/08/23 04:46:24;;;;;;;5.43;4.93;;;20.00;94.10;;;;;;5035062;28;20450;-76
2022/08/23 04:48:56;;;;;;;7.87;4.83;;;20.10;94.20;;;;;;5038830;28;20481;-76
2022/08/23 04:51:24;;;;;;;8.13;5.30;;;20.00;94.20;;;;;;5036734;28;20542;-78
2022/08/23 04:53:53;;;;;;;6.60;5.50;;;20.00;94.20;;;;;;5035091;28;20478;-78
2022/08/23 04:56:33;;;;;;;6.80;5.57;;;20.00;94.30;;;;;;5037328;28;20482;-77
2022/08/23 04:59:01;;;;;;;6.43;4.77;;;19.90;94.30;;;;;;5034702;28;20598;-76
2022/08/23 05:01:31;;;;;;;7.97;5.43;;;19.90;94.30;;;;;;5035268;28;20511;-78
2022/08/23 05:04:02;;;;;;;5.50;5.00;;;19.90;94.40;;;;;;5035490;28;20451;-79
2022/08/23 05:06:31;;;;;;;7.63;5.67;;;19.90;94.40;;;;;;5037934;28;20493;-79
2022/08/23 05:09:00;;;;;;;6.20;4.80;;;19.90;94.80;;;;;;5038945;28;20530;-78
2022/08/23 05:11:29;;;;;;;6.13;5.47;;;19.90;94.50;;;;;;5037568;28;20554;-79
2022/08/23 05:13:58;;;;;;;7.03;5.50;;;19.90;94.60;;;;;;5035322;28;20454;-79
2022/08/23 05:16:26;;;;;;;8.07;5.90;;;19.80;94.60;;;;;;5036019;28;20483;-78
2022/08/23 05:19:02;;;;;;;7.40;6.70;;;19.80;94.70;;;;;;5034870;28;21039;-78
2022/08/23 05:21:33;;;;;;;7.07;5.70;;;19.80;94.70;;;;;;5035295;28;20855;-79
2022/08/23 05:24:02;;;;;;;7.53;6.60;;;19.80;94.70;;;;;;5035278;28;20541;-77
2022/08/23 05:26:31;;;;;;;5.70;5.10;;;19.80;94.80;;;;;;5035090;28;20976;-79
2022/08/23 05:29:00;;;;;;;6.53;5.10;;;19.80;94.90;;;;;;5034426;28;20512;-77
2022/08/23 05:31:35;;;;;;;7.20;5.20;;;19.70;94.90;;;;;;5035229;28;20940;-80
2022/08/23 05:34:05;;;;;;;5.67;4.87;;;19.70;94.90;;;;;;5035448;28;20875;-78
2022/08/23 05:36:47;;;;;;;7.47;5.30;;;19.80;95.00;;;;;;5036116;28;20555;-79
2022/08/23 05:39:25;;;;;;;6.03;5.43;;;19.80;95.10;;;;;;5035371;28;20438;-78
2022/08/23 05:42:06;;;;;;;7.20;4.80;;;19.70;95.10;;;;;;5034931;28;20489;-78
2022/08/23 05:44:36;;;;;;;8.40;7.10;;;19.80;95.20;;;;;;5036318;28;20510;-78
2022/08/23 05:47:06;;;;;;;6.57;5.60;;;19.80;95.30;;;;;;5035877;28;20496;-78
2022/08/23 05:50:07;;;;;;;6.93;4.93;;;19.80;95.40;;;;;;5020480;28;20802;-80
2022/08/23 05:52:37;;;;;;;7.50;5.50;;;19.90;95.40;;;;;;5035839;28;20446;-79
2022/08/23 05:55:06;;;;;;;16.87;4.63;;;20.00;95.50;;;;;;5035502;28;20454;-78
2022/08/23 05:57:40;;;;;;;9.40;5.77;;;20.00;95.50;;;;;;5037393;28;20466;-77
2022/08/23 06:00:12;;;;;;;5.43;4.90;;;20.10;95.60;;;;;;5034332;28;20603;-77
2022/08/23 06:02:46;;;;;;;6.47;5.20;;;20.20;95.60;;;;;;5037272;28;20501;-78
2022/08/23 06:05:18;;;;;;;6.73;5.07;;;20.20;95.60;;;;;;5034529;28;20454;-79
2022/08/23 06:07:48;;;;;;;5.73;5.10;;;20.30;95.60;;;;;;5033565;28;20524;-77
2022/08/23 06:10:19;;;;;;;5.40;4.83;;;20.50;95.60;;;;;;5035544;28;20481;-78
2022/08/23 06:12:53;;;;;;;11.57;5.00;;;20.50;95.60;;;;;;5034971;28;20450;-79
2022/08/23 06:15:21;;;;;;;6.07;4.80;;;20.50;95.60;;;;;;5034948;28;20828;-77
2022/08/23 06:17:50;;;;;;;7.17;5.00;;;20.50;95.60;;;;;;5035145;28;20498;-78
2022/08/23 06:20:20;;;;;;;6.83;5.00;;;20.50;95.60;;;;;;5034107;28;20950;-77
2022/08/23 06:23:00;;;;;;;6.83;4.60;;;20.50;95.60;;;;;;5034534;28;20454;-77
2022/08/23 06:25:29;;;;;;;6.30;5.10;;;20.60;95.60;;;;;;5036711;28;20450;-77
2022/08/23 06:28:17;;;;;;;4.57;4.17;;;20.60;95.60;;;;;;5035680;28;20485;-77
2022/08/23 06:30:54;;;;;;;5.00;4.50;;;20.80;95.60;;;;;;5037076;28;20430;-77
2022/08/23 06:33:27;;;;;;;6.20;5.00;;;21.10;95.70;;;;;;5034262;28;20446;-77
2022/08/23 06:36:17;;;;;;;5.57;4.60;;;21.30;95.70;;;;;;5015195;28;20439;-78
2022/08/23 06:39:04;;;;;;;8.73;5.00;;;21.40;95.60;;;;;;5036308;28;20443;-78
2022/08/23 06:41:51;;;;;;;6.40;4.20;;;21.50;95.50;;;;;;5040348;28;20457;-79
2022/08/23 06:44:27;;;;;;;4.93;4.40;;;21.60;95.50;;;;;;5037171;28;20481;-79
2022/08/23 06:47:01;;;;;;;5.37;4.43;;;21.70;95.50;;;;;;5035636;28;20523;-79
2022/08/23 06:49:30;;;;;;;7.27;4.67;;;21.80;95.40;;;;;;5035882;28;20438;-79
2022/08/23 06:52:02;;;;;;;4.80;4.20;;;21.90;95.30;;;;;;5036089;28;20450;-78
2022/08/23 06:54:51;;;;;;;4.83;4.27;;;22.10;95.30;;;;;;5028923;28;20439;-77
2022/08/23 06:57:20;;;;;;;5.50;4.50;;;22.20;95.20;;;;;;5035747;28;20451;-78
2022/08/23 07:00:10;;;;;;;6.40;4.57;;;22.20;95.20;;;;;;5036911;28;20443;-78
2022/08/23 07:03:17;;;;;;;5.40;4.43;;;22.20;95.10;;;;;;4977876;28;20438;-78
2022/08/23 07:06:03;;;;;;;5.70;3.80;;;22.20;95.10;;;;;;4978696;28;20436;-78
2022/08/23 07:08:36;;;;;;;8.67;4.67;;;22.20;95.00;;;;;;5007455;28;20513;-78
2022/08/23 07:11:05;;;;;;;6.53;4.47;;;22.20;95.10;;;;;;5037087;28;20473;-79
2022/08/23 07:13:33;;;;;;;7.90;4.37;;;22.30;95.10;;;;;;5036371;28;20545;-79
2022/08/23 07:16:02;;;;;;;7.40;4.70;;;22.30;95.00;;;;;;5037411;28;20538;-78
2022/08/23 07:18:32;;;;;;;7.60;4.53;;;22.30;95.00;;;;;;5042097;28;20499;-79
2022/08/23 07:21:02;;;;;;;5.70;4.07;;;22.30;95.00;;;;;;5041180;28;20474;-78
2022/08/23 07:23:33;;;;;;;6.63;4.43;;;22.40;95.00;;;;;;5041262;28;20533;-78
2022/08/23 07:26:08;;;;;;;6.63;4.27;;;22.40;94.90;;;;;;5040954;28;21020;-78
2022/08/23 07:28:37;;;;;;;5.80;3.97;;;22.40;94.90;;;;;;5038297;28;20558;-77
2022/08/23 07:31:10;;;;;;;7.03;4.67;;;22.50;94.90;;;;;;5038966;28;20457;-77
2022/08/23 07:33:44;;;;;;;5.03;4.00;;;22.60;94.90;;;;;;5041005;28;20435;-79
2022/08/23 07:36:19;;;;;;;5.03;4.53;;;22.70;94.90;;;;;;5039753;28;20505;-78
2022/08/23 07:38:48;;;;;;;4.37;3.60;;;22.80;94.90;;;;;;5040839;28;20455;-79
2022/08/23 07:41:22;;;;;;;6.60;4.20;;;22.90;94.90;;;;;;5041332;28;20471;-79
2022/08/23 07:43:51;;;;;;;7.60;4.40;;;23.10;94.80;;;;;;5040821;28;20521;-78
2022/08/23 07:46:20;;;;;;;5.43;3.57;;;23.30;94.90;;;;;;5057186;28;20451;-78
2022/08/23 07:48:50;;;;;;;4.60;3.90;;;23.60;95.00;;;;;;5038490;28;20459;-80
2022/08/23 07:51:31;;;;;;;4.50;3.30;;;23.90;95.00;;;;;;5040048;28;20861;-79
2022/08/23 07:54:01;;;;;;;5.23;3.80;;;24.20;94.90;;;;;;5038644;28;20526;-78
2022/08/23 07:56:31;;;;;;;4.63;3.70;;;24.40;94.60;;;;;;5041611;28;20466;-80
2022/08/23 07:59:02;;;;;;;12.10;4.23;;;24.70;94.40;;;;;;5044833;28;20423;-79
2022/08/23 08:01:49;;;;;;;6.07;3.67;;;24.80;94.10;;;;;;5045007;28;20513;-80
2022/08/23 08:04:18;;;;;;;6.40;3.90;;;25.00;94.10;;;;;;5043643;28;20849;-78
2022/08/23 08:06:50;;;;;;;5.20;3.50;;;25.10;93.80;;;;;;5041167;28;20544;-80
2022/08/23 08:09:42;;;;;;;6.23;3.53;;;25.30;93.60;;;;;;5043032;28;20497;-79
2022/08/23 08:12:12;;;;;;;4.73;3.40;;;25.40;93.50;;;;;;5042421;28;20451;-80
2022/08/23 08:14:42;;;;;;;4.03;3.63;;;25.50;93.30;;;;;;5041014;28;20435;-80
2022/08/23 08:17:13;;;;;;;5.63;4.37;;;25.70;93.30;;;;;;5041765;28;20467;-79
2022/08/23 08:20:08;;;;;;;4.23;3.83;;;25.80;93.10;;;;;;5043428;28;20443;-79
2022/08/23 08:22:36;;;;;;;7.30;3.90;;;26.00;93.00;;;;;;5042280;28;20470;-80
2022/08/23 08:25:36;;;;;;;6.40;3.97;;;26.10;92.80;;;;;;5008904;28;20455;-79
2022/08/23 08:28:09;;;;;;;5.13;3.90;;;26.30;92.50;;;;;;5041206;28;20475;-80
2022/08/23 08:30:43;;;;;;;8.13;3.50;;;26.40;92.20;;;;;;5042302;28;20452;-79
2022/08/23 08:33:15;;;;;;;4.37;3.37;;;26.50;92.30;;;;;;5041063;28;20477;-79
2022/08/23 08:35:47;;;;;;;4.40;3.27;;;26.50;91.90;;;;;;5040020;28;20443;-79
2022/08/23 08:38:27;;;;;;;5.10;3.57;;;26.60;91.70;;;;;;5041261;28;21007;-80
2022/08/23 08:41:06;;;;;;;5.33;3.50;;;26.70;91.60;;;;;;5041888;28;20797;-80
2022/08/23 08:43:50;;;;;;;5.10;3.40;;;26.80;91.40;;;;;;5041067;28;20860;-79
2022/08/23 08:46:26;;;;;;;6.23;4.10;;;26.90;91.20;;;;;;5040066;28;20823;-80
2022/08/23 08:48:59;;;;;;;6.10;3.80;;;27.00;91.20;;;;;;5041190;28;20702;-79
2022/08/23 08:51:46;;;;;;;7.27;3.50;;;27.00;91.10;;;;;;5042026;28;20435;-81
2022/08/23 08:54:21;;;;;;;5.50;3.50;;;27.10;90.90;;;;;;5041876;28;20478;-80
2022/08/23 08:56:53;;;;;;;5.07;3.30;;;27.20;90.70;;;;;;5042351;28;20463;-79
2022/08/23 08:59:30;;;;;;;3.90;3.60;;;27.30;90.60;;;;;;5042296;28;20443;-79
2022/08/23 09:01:59;;;;;;;5.50;3.73;;;27.30;90.30;;;;;;5041450;28;20454;-80
2022/08/23 09:04:37;;;;;;;5.97;3.80;;;27.40;90.20;;;;;;5041671;28;20606;-80
2022/08/23 09:07:14;;;;;;;6.97;3.63;;;27.50;90.00;;;;;;5040653;28;20904;-80
2022/08/23 09:09:59;;;;;;;4.00;3.60;;;27.50;89.50;;;;;;5043650;28;20848;-79
2022/08/23 09:12:48;;;;;;;4.63;3.37;;;27.60;89.40;;;;;;5041402;28;20936;-80
2022/08/23 09:15:28;;;;;;;7.13;3.33;;;27.60;89.30;;;;;;5041118;28;20497;-80
2022/08/23 09:17:58;;;;;;;6.47;3.20;;;27.70;89.20;;;;;;5040413;28;20525;-80
2022/08/23 09:20:29;;;;;;;4.40;3.77;;;27.80;88.90;;;;;;5041922;28;20534;-80
2022/08/23 09:23:08;;;;;;;5.30;3.67;;;27.90;88.70;;;;;;5043281;28;20466;-79
2022/08/23 09:25:39;;;;;;;7.13;3.30;;;27.90;88.10;;;;;;5040554;28;20465;-79
2022/08/23 09:28:16;;;;;;;3.80;3.40;;;28.00;87.70;;;;;;5040147;28;20520;-80
2022/08/23 09:30:53;;;;;;;4.83;3.53;;;28.00;87.60;;;;;;5039534;28;20533;-80
2022/08/23 09:33:26;;;;;;;6.00;3.70;;;28.10;87.40;;;;;;5038859;28;20462;-81
2022/08/23 09:36:14;;;;;;;6.00;3.67;;;28.20;87.60;;;;;;5038648;28;20443;-81
2022/08/23 09:38:53;;;;;;;4.33;3.23;;;28.20;86.50;;;;;;5037746;28;20466;-79
2022/08/23 09:41:26;;;;;;;4.70;3.30;;;28.30;86.40;;;;;;5039286;28;20442;-79
2022/08/23 09:44:00;;;;;;;6.20;3.43;;;28.40;86.40;;;;;;5038907;28;20524;-79
2022/08/23 09:46:32;;;;;;;4.27;3.20;;;28.40;86.20;;;;;;5038085;28;20951;-79
2022/08/23 09:49:22;;;;;;;3.57;3.23;;;28.50;85.90;;;;;;5038016;28;20447;-80
2022/08/23 09:51:55;;;;;;;4.80;3.90;;;28.60;85.70;;;;;;5038128;28;20478;-80
2022/08/23 09:54:30;;;;;;;6.13;3.40;;;28.60;85.70;;;;;;5039367;28;20455;-80
2022/08/23 09:57:01;;;;;;;5.53;3.20;;;28.70;85.70;;;;;;5046745;28;20493;-80
2022/08/23 09:59:39;;;;;;;5.70;3.43;;;28.70;85.10;;;;;;5049571;28;20439;-79
2022/08/23 10:02:26;;;;;;;4.33;2.80;;;28.80;84.40;;;;;;5047052;28;20440;-79
2022/08/23 10:05:00;;;;;;;7.73;3.30;;;28.90;84.50;;;;;;5043165;28;20438;-80
2022/08/23 10:07:41;;;;;;;6.83;3.30;;;28.90;84.50;;;;;;5042775;28;20467;-80
2022/08/23 10:10:27;;;;;;;4.70;2.93;;;29.00;83.80;;;;;;5042211;28;20458;-80
2022/08/23 10:13:00;;;;;;;4.67;3.10;;;29.00;83.80;;;;;;5040605;28;20489;-79
2022/08/23 10:15:40;;;;;;;3.60;3.13;;;29.10;83.70;;;;;;5040398;28;20446;-81
2022/08/23 10:18:18;;;;;;;6.37;3.20;;;29.10;83.30;;;;;;5041026;28;20482;-81
2022/08/23 10:20:57;;;;;;;7.40;3.13;;;29.20;82.90;;;;;;5041116;28;20478;-80
2022/08/23 10:23:41;;;;;;;5.27;3.20;;;29.20;82.50;;;;;;5040239;28;20486;-79
2022/08/23 10:26:18;;;;;;;4.90;3.10;;;29.20;82.50;;;;;;5040184;28;20439;-80
2022/08/23 10:31:51;;;;;;;4.70;3.20;;;29.30;81.90;;;;;;5039260;28;20439;-79
2022/08/23 10:34:42;;;;;;;4.07;3.43;;;29.40;81.90;;;;;;5040644;28;20481;-80
2022/08/23 10:37:35;;;;;;;3.50;2.90;;;29.40;81.00;;;;;;5040850;28;20539;-79
2022/08/23 10:40:12;;;;;;;5.40;2.90;;;29.40;80.80;;;;;;5041051;28;20443;-80
2022/08/23 10:42:52;;;;;;;6.83;3.40;;;29.50;80.70;;;;;;5040581;28;20450;-79
2022/08/23 10:45:25;;;;;;;5.03;3.20;;;29.50;80.60;;;;;;5040526;28;20450;-79
2022/08/23 10:48:19;;;;;;;4.50;3.33;;;29.50;80.20;;;;;;5039502;28;20522;-79
2022/08/23 10:50:53;;;;;;;7.07;3.90;;;29.50;80.10;;;;;;5044795;28;20502;-80
2022/08/23 10:53:32;;;;;;;5.20;3.43;;;29.60;80.10;;;;;;5049272;28;20449;-79
2022/08/23 10:56:03;;;;;;;7.27;3.17;;;29.60;79.90;;;;;;5050656;28;20792;-80
2022/08/23 10:58:43;;;;;;;4.17;3.30;;;29.60;79.80;;;;;;5049601;28;20501;-79
2022/08/23 11:01:19;;;;;;;6.57;3.60;;;29.60;79.40;;;;;;5049016;28;20441;-79
2022/08/23 11:03:59;;;;;;;6.47;3.50;;;29.60;79.00;;;;;;5044226;28;20481;-80
2022/08/23 11:06:43;;;;;;;5.40;2.83;;;29.60;78.40;;;;;;5043836;28;20514;-79
2022/08/23 11:09:38;;;;;;;7.63;3.30;;;29.60;78.00;;;;;;5040373;28;20457;-79
2022/08/23 11:12:15;;;;;;;6.13;2.97;;;29.60;78.20;;;;;;5035064;28;20882;-79
2022/08/23 11:14:48;;;;;;;5.83;3.53;;;29.60;78.10;;;;;;5041203;28;20438;-78
2022/08/23 11:17:26;;;;;;;4.80;3.20;;;29.60;78.40;;;;;;5040671;28;20474;-80
2022/08/23 11:19:58;;;;;;;5.27;3.37;;;29.60;77.70;;;;;;5041440;28;20442;-79
2022/08/23 11:22:32;;;;;;;4.80;2.83;;;29.60;77.50;;;;;;5042336;28;20470;-79
2022/08/23 11:25:03;;;;;;;5.17;3.03;;;29.60;77.40;;;;;;5041321;28;20843;-78
2022/08/23 11:27:39;;;;;;;4.73;3.10;;;29.70;77.20;;;;;;5041641;28;20462;-78
2022/08/23 11:30:48;;;;;;;3.20;2.90;;;29.70;77.10;;;;;;5042372;28;20447;-78
2022/08/23 11:33:26;;;;;;;5.70;2.80;;;29.70;76.80;;;;;;5042871;28;20462;-77
2022/08/23 11:36:16;;;;;;;4.90;3.00;;;29.80;76.90;;;;;;5041734;28;20506;-78
2022/08/23 11:39:12;;;;;;;3.00;2.70;;;29.80;76.30;;;;;;5040436;28;20467;-79
2022/08/23 11:42:05;;;;;;;5.10;3.03;;;29.80;75.90;;;;;;5041805;28;20860;-79
2022/08/23 11:44:40;;;;;;;5.27;3.20;;;29.80;75.60;;;;;;5043583;28;20458;-79
2022/08/23 11:47:12;;;;;;;3.63;2.70;;;29.80;75.50;;;;;;5041825;28;20463;-79
2022/08/23 11:50:11;;;;;;;5.07;3.10;;;29.80;75.40;;;;;;5042194;28;20447;-78
2022/08/23 11:53:18;;;;;;;4.53;3.10;;;29.80;75.00;;;;;;5043621;28;20841;-79
2022/08/23 11:56:23;;;;;;;3.80;3.10;;;29.80;74.90;;;;;;5036363;28;20518;-79
2022/08/23 11:59:12;;;;;;;5.27;3.60;;;29.80;74.90;;;;;;5039259;28;20462;-78
2022/08/23 12:01:41;;;;;;;3.20;2.50;;;29.80;74.10;;;;;;5041714;28;20423;-79
2022/08/23 12:04:13;;;;;;;3.63;3.20;;;29.70;74.30;;;;;;5039605;28;20901;-78
2022/08/23 12:06:45;;;;;;;3.70;3.03;;;29.80;74.10;;;;;;5041744;28;20419;-79
2022/08/23 12:09:53;;;;;;;3.90;2.97;;;29.80;74.00;;;;;;5041202;28;20447;-79
2022/08/23 12:12:28;;;;;;;3.50;2.57;;;29.80;73.90;;;;;;5042944;28;20904;-79
2022/08/23 12:15:06;;;;;;;3.27;2.87;;;29.80;73.70;;;;;;5042211;28;20478;-78
2022/08/23 12:18:12;;;;;;;3.60;2.90;;;29.80;73.40;;;;;;5040438;28;20558;-78
2022/08/23 12:20:41;;;;;;;5.40;3.07;;;29.80;73.40;;;;;;5041129;28;20451;-79
2022/08/23 12:23:19;;;;;;;2.73;2.20;;;29.80;73.40;;;;;;5041695;28;20936;-79
2022/08/23 12:25:59;;;;;;;3.70;2.73;;;29.80;73.10;;;;;;5043632;28;20474;-79
2022/08/23 12:28:43;;;;;;;4.30;2.50;;;29.90;73.10;;;;;;5040021;28;20474;-78
2022/08/23 12:31:25;;;;;;;5.93;3.20;;;29.90;72.90;;;;;;5040336;28;20415;-79
2022/08/23 12:34:05;;;;;;;4.23;2.63;;;29.90;72.20;;;;;;5040815;28;20419;-78
2022/08/23 12:36:39;;;;;;;3.40;2.63;;;29.90;71.80;;;;;;5041588;28;20866;-79
2022/08/23 12:39:19;;;;;;;4.07;2.80;;;29.90;71.80;;;;;;5040831;28;20515;-80
2022/08/23 12:41:55;;;;;;;3.00;2.57;;;29.90;71.60;;;;;;5041251;28;20430;-79
2022/08/23 12:44:26;;;;;;;5.03;2.63;;;30.00;71.40;;;;;;5040270;28;20461;-81
2022/08/23 12:46:56;;;;;;;2.93;2.17;;;30.00;71.20;;;;;;5039951;28;20508;-79
2022/08/23 12:49:33;;;;;;;6.10;2.60;;;30.00;71.10;;;;;;5045625;28;20520;-79
2022/08/23 12:52:06;;;;;;;5.07;2.67;;;30.00;71.10;;;;;;5043630;28;20446;-79
2022/08/23 12:54:38;;;;;;;2.90;2.47;;;30.10;70.70;;;;;;5043536;28;20477;-79
2022/08/23 12:57:10;;;;;;;4.67;2.83;;;30.10;70.00;;;;;;5047588;28;20462;-79
2022/08/23 12:59:43;;;;;;;3.50;2.20;;;30.10;69.90;;;;;;5044223;28;20531;-79
2022/08/23 13:02:18;;;;;;;3.40;2.30;;;30.10;69.70;;;;;;5047424;28;20427;-79
2022/08/23 13:04:46;;;;;;;3.10;2.20;;;30.10;69.60;;;;;;5046656;28;20462;-79
2022/08/23 13:07:19;;;;;;;3.43;2.40;;;30.10;69.20;;;;;;5042551;28;20501;-80
2022/08/23 13:09:49;;;;;;;3.03;2.00;;;30.10;68.40;;;;;;5039969;28;20785;-78
2022/08/23 13:12:23;;;;;;;9.03;2.70;;;30.10;68.60;;;;;;5039760;28;20458;-79
2022/08/23 13:14:53;;;;;;;4.80;2.90;;;30.10;68.70;;;;;;5039016;28;20438;-80
2022/08/23 13:17:35;;;;;;;3.50;2.10;;;30.10;68.80;;;;;;5039980;28;20530;-79
2022/08/23 13:20:19;;;;;;;3.50;2.13;;;30.10;68.30;;;;;;5039691;28;20423;-80
2022/08/23 13:23:01;;;;;;;6.10;2.47;;;30.20;68.40;;;;;;5040988;28;20434;-80
2022/08/23 13:25:33;;;;;;;3.63;2.10;;;30.20;67.70;;;;;;5040887;28;20482;-79
2022/08/23 13:28:03;;;;;;;4.30;2.40;;;30.20;67.70;;;;;;5039488;28;20505;-80
2022/08/23 13:30:32;;;;;;;3.70;2.40;;;30.20;67.70;;;;;;5039744;28;20447;-78
2022/08/23 13:33:24;;;;;;;8.47;2.57;;;30.30;67.80;;;;;;5039678;28;20439;-79
2022/08/23 13:36:08;;;;;;;4.43;1.80;;;30.30;67.40;;;;;;5039459;28;20443;-79